Time;durP1;ratioP1;P1;durP2;ratioP2;P2;SDS_P1;SDS_P2;PMS_P1;PMS_P2;Temp;Humidity;BMP_temperature;BMP_pressure;BME280_temperature;BME280_humidity;BME280_pressure;Samples;Min_cycle;Max_cycle;Signal;HPM_P1;HPM_P2
2022/09/04 00:02:14;;;;;;;2.08;1.08;;;;;;;;;;5028939;28;20103;-66
2022/09/04 00:04:55;;;;;;;1.65;0.98;;;;;;;;;;5033896;28;20041;-66
2022/09/04 00:07:35;;;;;;;1.52;0.85;;;;;;;;;;5033826;28;20060;-63
2022/09/04 00:10:32;;;;;;;2.40;0.88;;;;;;;;;;5033846;28;20025;-66
2022/09/04 00:13:19;;;;;;;3.42;1.00;;;;;;;;;;5033887;28;20047;-67
2022/09/04 00:15:55;;;;;;;2.55;1.25;;;;;;;;;;5033589;28;20037;-67
2022/09/04 00:18:40;;;;;;;2.60;1.15;;;;;;;;;;5033708;28;20026;-64
2022/09/04 00:21:14;;;;;;;1.70;1.10;;;;;;;;;;5033656;28;20044;-64
2022/09/04 00:23:42;;;;;;;1.58;0.90;;;;;;;;;;5033525;28;20029;-67
2022/09/04 00:26:17;;;;;;;5.60;1.08;;;;;;;;;;5033586;28;20032;-65
2022/09/04 00:29:09;;;;;;;2.63;1.00;;;;;;;;;;5033446;28;20037;-62
2022/09/04 00:31:51;;;;;;;1.33;0.90;;;;;;;;;;5033254;28;20112;-66
2022/09/04 00:34:31;;;;;;;3.55;1.05;;;;;;;;;;5033439;28;20026;-67
2022/09/04 00:37:03;;;;;;;4.00;0.82;;;;;;;;;;5033335;28;20104;-67
2022/09/04 00:40:00;;;;;;;1.60;1.00;;;;;;;;;;5033275;28;20033;-63
2022/09/04 00:42:44;;;;;;;2.35;0.98;;;;;;;;;;5010882;28;20041;-63
2022/09/04 00:45:33;;;;;;;1.83;0.82;;;;;;;;;;5010853;28;20065;-64
2022/09/04 00:48:10;;;;;;;1.92;1.38;;;;;;;;;;5011324;28;20564;-63
2022/09/04 00:50:55;;;;;;;1.70;0.90;;;;;;;;;;5011128;28;20068;-64
2022/09/04 00:53:45;;;;;;;1.73;0.90;;;;;;;;;;5011367;28;20365;-62
2022/09/04 00:56:28;;;;;;;1.48;0.93;;;;;;;;;;5011431;28;20113;-66
2022/09/04 00:59:31;;;;;;;4.03;1.10;;;;;;;;;;5010885;28;20108;-66
2022/09/04 01:02:10;;;;;;;1.60;0.90;;;;;;;;;;5011174;28;20080;-63
2022/09/04 01:04:54;;;;;;;1.55;0.98;;;;;;;;;;5011230;28;20030;-63
2022/09/04 01:07:32;;;;;;;1.75;1.17;;;;;;;;;;5010903;28;20045;-67
2022/09/04 01:10:22;;;;;;;3.35;1.10;;;;;;;;;;5010604;28;20061;-63
2022/09/04 01:12:56;;;;;;;2.08;1.00;;;;;;;;;;5011083;28;20037;-66
2022/09/04 01:15:40;;;;;;;3.08;1.00;;;;;;;;;;5010844;28;20028;-64
2022/09/04 01:18:28;;;;;;;2.85;0.90;;;;;;;;;;5012242;28;20030;-66
2022/09/04 01:21:29;;;;;;;3.03;1.10;;;;;;;;;;5032836;28;20104;-63
2022/09/04 01:24:01;;;;;;;3.08;1.08;;;;;;;;;;5032764;28;20025;-64
2022/09/04 01:26:42;;;;;;;1.80;0.90;;;;;;;;;;5032669;28;20040;-65
2022/09/04 01:29:45;;;;;;;1.60;1.00;;;;;;;;;;5032530;28;20087;-65
2022/09/04 01:32:35;;;;;;;4.47;0.90;;;;;;;;;;5032736;28;20488;-66
2022/09/04 01:35:23;;;;;;;2.55;1.23;;;;;;;;;;5032671;28;20491;-67
2022/09/04 01:38:00;;;;;;;1.80;1.10;;;;;;;;;;5032739;28;20029;-68
2022/09/04 01:40:53;;;;;;;1.33;0.75;;;;;;;;;;5032596;28;20507;-63
2022/09/04 01:43:20;;;;;;;1.50;0.95;;;;;;;;;;5040202;28;20049;-65
2022/09/04 01:46:14;;;;;;;4.10;1.13;;;;;;;;;;5034831;28;20041;-63
2022/09/04 01:49:09;;;;;;;3.83;0.90;;;;;;;;;;5032461;28;20046;-63
2022/09/04 01:51:38;;;;;;;1.88;0.98;;;;;;;;;;5027452;28;20041;-63
2022/09/04 01:54:22;;;;;;;2.20;1.10;;;;;;;;;;5032382;28;20071;-63
2022/09/04 01:56:56;;;;;;;2.53;1.00;;;;;;;;;;5032338;28;20029;-67
2022/09/04 01:59:31;;;;;;;2.47;0.95;;;;;;;;;;5032396;28;20087;-66
2022/09/04 02:02:14;;;;;;;2.28;1.30;;;;;;;;;;5032410;28;20072;-64
2022/09/04 02:05:10;;;;;;;4.25;1.25;;;;;;;;;;5032471;28;20026;-64
2022/09/04 02:07:45;;;;;;;2.85;1.10;;;;;;;;;;5032321;28;20029;-64
2022/09/04 02:10:39;;;;;;;4.25;1.23;;;;;;;;;;5032380;28;20041;-67
2022/09/04 02:13:19;;;;;;;3.05;0.98;;;;;;;;;;5032179;28;20029;-64
2022/09/04 02:15:50;;;;;;;3.33;1.00;;;;;;;;;;5032309;28;20072;-63
2022/09/04 02:18:36;;;;;;;2.35;1.20;;;;;;;;;;5032202;28;20022;-63
2022/09/04 02:21:09;;;;;;;1.48;0.95;;;;;;;;;;5032164;28;20404;-66
2022/09/04 02:24:05;;;;;;;1.73;0.98;;;;;;;;;;5035677;28;20100;-68
2022/09/04 02:26:55;;;;;;;2.20;1.10;;;;;;;;;;5035690;28;20080;-66
2022/09/04 02:29:26;;;;;;;1.70;1.10;;;;;;;;;;5035699;28;20029;-65
2022/09/04 02:32:02;;;;;;;3.55;1.10;;;;;;;;;;5035715;28;20053;-68
2022/09/04 02:34:37;;;;;;;2.03;1.05;;;;;;;;;;5035575;28;20033;-63
2022/09/04 02:37:14;;;;;;;1.67;1.02;;;;;;;;;;5035623;28;20090;-63
2022/09/04 02:39:42;;;;;;;3.08;1.98;;;;;;;;;;5035514;28;20026;-66
2022/09/04 02:42:18;;;;;;;2.40;1.20;;;;;;;;;;5035120;28;20036;-63
2022/09/04 02:45:05;;;;;;;1.58;1.08;;;;;;;;;;5024332;28;20350;-63
2022/09/04 02:47:56;;;;;;;2.25;1.20;;;;;;;;;;5035342;28;20120;-63
2022/09/04 02:50:38;;;;;;;1.55;1.05;;;;;;;;;;5035351;28;20022;-62
2022/09/04 02:53:12;;;;;;;1.73;1.00;;;;;;;;;;5035281;28;20075;-64
2022/09/04 02:56:13;;;;;;;1.38;0.88;;;;;;;;;;5035008;28;20345;-65
2022/09/04 02:59:06;;;;;;;1.80;1.13;;;;;;;;;;5035301;28;20029;-63
2022/09/04 03:01:58;;;;;;;1.73;1.13;;;;;;;;;;5035174;28;20025;-63
2022/09/04 03:04:35;;;;;;;2.95;1.20;;;;;;;;;;5035071;28;20062;-65
2022/09/04 03:07:07;;;;;;;4.28;1.15;;;;;;;;;;5034819;28;20025;-63
2022/09/04 03:09:46;;;;;;;3.03;1.02;;;;;;;;;;5034866;28;20370;-65
2022/09/04 03:12:30;;;;;;;2.90;1.23;;;;;;;;;;5035165;28;20036;-63
2022/09/04 03:15:33;;;;;;;3.35;1.23;;;;;;;;;;5035107;28;20074;-63
2022/09/04 03:18:12;;;;;;;3.17;1.80;;;;;;;;;;5034988;28;20049;-64
2022/09/04 03:20:51;;;;;;;4.45;1.25;;;;;;;;;;5034772;28;20029;-64
2022/09/04 03:23:28;;;;;;;2.63;1.13;;;;;;;;;;5033725;28;20392;-63
2022/09/04 03:26:08;;;;;;;2.13;1.13;;;;;;;;;;5034531;28;20021;-63
2022/09/04 03:29:01;;;;;;;2.30;1.10;;;;;;;;;;5034666;28;20033;-63
2022/09/04 03:31:32;;;;;;;2.70;1.25;;;;;;;;;;5034629;28;20079;-63
2022/09/04 03:34:15;;;;;;;3.00;1.20;;;;;;;;;;5033661;28;20480;-63
2022/09/04 03:36:58;;;;;;;2.20;1.13;;;;;;;;;;5034568;28;20033;-63
2022/09/04 03:40:01;;;;;;;6.05;1.33;;;;;;;;;;5034221;28;20112;-63
2022/09/04 03:43:04;;;;;;;2.80;1.10;;;;;;;;;;5035141;28;20052;-63
2022/09/04 03:45:36;;;;;;;1.52;1.10;;;;;;;;;;5016848;28;20116;-64
2022/09/04 03:48:28;;;;;;;4.25;1.15;;;;;;;;;;5012188;28;20029;-65
2022/09/04 03:51:23;;;;;;;2.08;1.20;;;;;;;;;;5012193;28;20037;-63
2022/09/04 03:53:58;;;;;;;3.33;1.40;;;;;;;;;;5012018;28;20034;-65
2022/09/04 03:56:58;;;;;;;2.60;1.70;;;;;;;;;;5012212;28;20397;-64
2022/09/04 03:59:24;;;;;;;;;;;;;;;;;;4991675;28;20089;-63
2022/09/04 04:01:58;;;;;;;4.55;1.17;;;;;;;;;;5012286;28;20458;-63
2022/09/04 04:04:58;;;;;;;4.13;1.30;;;;;;;;;;5012132;28;20116;-62
2022/09/04 04:07:40;;;;;;;1.85;1.00;;;;;;;;;;5011715;28;20062;-67
2022/09/04 04:10:32;;;;;;;4.38;1.35;;;;;;;;;;5011978;28;20069;-63
2022/09/04 04:13:42;;;;;;;2.92;1.30;;;;;;;;;;5012061;28;20059;-63
2022/09/04 04:16:19;;;;;;;1.95;1.10;;;;;;;;;;5017830;28;20033;-63
2022/09/04 04:19:09;;;;;;;2.33;1.20;;;;;;;;;;5033487;28;20037;-65
2022/09/04 04:22:07;;;;;;;1.92;1.17;;;;;;;;;;5033658;28;20032;-63
2022/09/04 04:24:46;;;;;;;2.05;1.23;;;;;;;;;;5033571;28;20082;-63
2022/09/04 04:27:36;;;;;;;2.20;1.35;;;;;;;;;;5033443;28;20029;-66
2022/09/04 04:30:06;;;;;;;2.60;1.50;;;;;;;;;;5033612;28;20033;-64
2022/09/04 04:32:44;;;;;;;4.32;1.50;;;;;;;;;;5033561;28;20029;-65
2022/09/04 04:35:34;;;;;;;3.25;1.38;;;;;;;;;;5033436;28;20036;-62
2022/09/04 04:38:17;;;;;;;;;;;;;;;;;;5033491;28;20129;-63
2022/09/04 04:41:08;;;;;;;2.50;1.38;;;;;;;;;;5033359;28;20364;-67
2022/09/04 04:44:00;;;;;;;2.47;1.33;;;;;;;;;;5043131;28;20045;-65
2022/09/04 04:46:41;;;;;;;3.17;1.45;;;;;;;;;;5033122;28;20029;-63
2022/09/04 04:49:51;;;;;;;2.42;1.25;;;;;;;;;;5033058;28;20044;-63
2022/09/04 04:52:55;;;;;;;1.92;1.27;;;;;;;;;;5011041;28;20099;-62
2022/09/04 04:55:58;;;;;;;2.90;1.35;;;;;;;;;;5011333;28;20033;-65
2022/09/04 04:58:41;;;;;;;5.97;2.85;;;;;;;;;;5011245;28;20037;-63
2022/09/04 05:01:26;;;;;;;6.88;2.63;;;;;;;;;;5011014;28;20104;-63
2022/09/04 05:04:26;;;;;;;5.45;2.10;;;;;;;;;;5011245;28;20037;-63
2022/09/04 05:07:00;;;;;;;4.68;1.77;;;;;;;;;;5010809;28;20056;-63
2022/09/04 05:09:49;;;;;;;7.45;2.00;;;;;;;;;;5011041;28;20030;-63
2022/09/04 05:12:45;;;;;;;4.07;1.30;;;;;;;;;;5011111;28;20036;-65
2022/09/04 05:15:27;;;;;;;3.17;1.55;;;;;;;;;;5010980;28;20153;-64
2022/09/04 05:18:03;;;;;;;3.33;1.65;;;;;;;;;;5010970;28;20061;-63
2022/09/04 05:20:37;;;;;;;5.63;1.70;;;;;;;;;;5010421;28;20033;-62
2022/09/04 05:23:21;;;;;;;3.42;1.45;;;;;;;;;;5010921;28;20038;-63
2022/09/04 05:26:07;;;;;;;2.45;1.48;;;;;;;;;;5011022;28;20041;-62
2022/09/04 05:28:49;;;;;;;6.00;1.52;;;;;;;;;;5020451;28;20041;-63
2022/09/04 05:31:43;;;;;;;5.95;3.17;;;;;;;;;;5032679;28;20025;-64
2022/09/04 05:34:17;;;;;;;4.38;1.42;;;;;;;;;;5032597;28;20058;-65
2022/09/04 05:37:06;;;;;;;3.72;1.30;;;;;;;;;;5032693;28;20021;-65
2022/09/04 05:39:57;;;;;;;3.33;1.58;;;;;;;;;;5032632;28;20067;-64
2022/09/04 05:42:44;;;;;;;3.13;1.92;;;;;;;;;;5032758;28;20866;-63
2022/09/04 05:45:32;;;;;;;3.22;1.50;;;;;;;;;;5039952;28;20037;-63
2022/09/04 05:48:27;;;;;;;2.90;1.40;;;;;;;;;;5032411;28;20408;-63
2022/09/04 05:51:17;;;;;;;4.25;1.40;;;;;;;;;;5032210;28;20140;-65
2022/09/04 05:54:04;;;;;;;3.33;1.65;;;;;;;;;;5032420;28;20022;-63
2022/09/04 05:56:41;;;;;;;3.85;1.45;;;;;;;;;;5032643;28;20469;-63
2022/09/04 05:59:44;;;;;;;3.55;1.58;;;;;;;;;;5036173;28;20049;-63
2022/09/04 06:02:40;;;;;;;7.63;2.25;;;;;;;;;;5036242;28;20063;-62
2022/09/04 06:05:24;;;;;;;4.32;1.75;;;;;;;;;;5035829;28;20452;-63
2022/09/04 06:08:13;;;;;;;2.55;1.50;;;;;;;;;;5035957;28;20033;-63
2022/09/04 06:11:08;;;;;;;3.28;1.60;;;;;;;;;;5036080;28;20029;-63
2022/09/04 06:13:58;;;;;;;3.22;1.58;;;;;;;;;;5014154;28;20117;-62
2022/09/04 06:16:46;;;;;;;2.43;1.30;;;;;;;;;;5014072;28;20025;-64
2022/09/04 06:19:27;;;;;;;4.68;1.52;;;;;;;;;;4955200;29;20044;-67
2022/09/04 06:22:29;;;;;;;2.83;1.35;;;;;;;;;;4955707;29;20050;-63
2022/09/04 06:25:22;;;;;;;2.00;1.25;;;;;;;;;;4955527;29;20039;-63
2022/09/04 06:28:23;;;;;;;4.75;1.55;;;;;;;;;;4955521;29;20098;-65
2022/09/04 06:31:04;;;;;;;2.10;1.40;;;;;;;;;;4898275;29;20045;-67
2022/09/04 06:33:54;;;;;;;4.07;2.25;;;;;;;;;;4898137;29;20578;-65
2022/09/04 06:36:28;;;;;;;3.17;1.60;;;;;;;;;;4898144;29;20124;-65
2022/09/04 06:39:29;;;;;;;3.03;1.38;;;;;;;;;;4898217;29;20036;-62
2022/09/04 06:42:03;;;;;;;2.40;1.50;;;;;;;;;;4898298;29;20515;-63
2022/09/04 06:44:39;;;;;;;2.42;1.60;;;;;;;;;;4908208;29;20051;-63
2022/09/04 06:47:14;;;;;;;2.20;1.60;;;;;;;;;;4897833;29;20077;-63
2022/09/04 06:50:00;;;;;;;3.10;1.70;;;;;;;;;;4905027;29;20507;-66
2022/09/04 06:52:37;;;;;;;3.28;1.60;;;;;;;;;;4916913;29;20032;-65
2022/09/04 06:55:12;;;;;;;3.85;2.00;;;;;;;;;;4917955;28;20072;-63
2022/09/04 06:57:49;;;;;;;2.40;1.50;;;;;;;;;;4974246;28;20554;-63
2022/09/04 07:00:16;;;;;;;5.47;1.60;;;;;;;;;;4974201;28;20031;-63
2022/09/04 07:03:00;;;;;;;3.53;1.63;;;;;;;;;;4973903;28;20113;-64
2022/09/04 07:06:10;;;;;;;4.38;1.98;;;;;;;;;;4974147;28;20028;-62
2022/09/04 07:08:57;;;;;;;2.77;1.50;;;;;;;;;;4940961;28;20054;-62
2022/09/04 07:11:42;;;;;;;3.50;1.73;;;;;;;;;;4954734;28;20798;-64
2022/09/04 07:14:44;;;;;;;3.15;1.80;;;;;;;;;;4954848;29;20055;-65
2022/09/04 07:17:38;;;;;;;3.42;1.60;;;;;;;;;;4954577;28;20119;-62
2022/09/04 07:20:49;;;;;;;3.65;1.88;;;;;;;;;;4947165;29;20035;-62
2022/09/04 07:23:22;;;;;;;3.22;1.58;;;;;;;;;;4873580;29;20428;-63
2022/09/04 07:26:09;;;;;;;3.00;1.80;;;;;;;;;;4878893;29;20041;-63
2022/09/04 07:28:56;;;;;;;3.80;1.70;;;;;;;;;;4878697;29;20079;-63
2022/09/04 07:31:28;;;;;;;3.25;1.80;;;;;;;;;;4878608;29;20166;-64
2022/09/04 07:34:18;;;;;;;2.80;1.67;;;;;;;;;;4878664;29;20044;-63
2022/09/04 07:36:56;;;;;;;2.78;1.77;;;;;;;;;;4878711;29;20036;-63
2022/09/04 07:39:32;;;;;;;4.85;2.00;;;;;;;;;;4919730;29;20055;-65
2022/09/04 07:42:06;;;;;;;4.82;1.83;;;;;;;;;;4954410;29;20110;-67
2022/09/04 07:44:46;;;;;;;2.95;1.85;;;;;;;;;;4964780;28;20039;-63
2022/09/04 07:47:26;;;;;;;2.75;1.88;;;;;;;;;;4954276;29;20067;-65
2022/09/04 07:50:15;;;;;;;4.45;2.15;;;;;;;;;;4954025;29;20398;-65
2022/09/04 07:53:00;;;;;;;2.33;1.60;;;;;;;;;;4953963;29;20036;-63
2022/09/04 07:55:40;;;;;;;6.05;1.70;;;;;;;;;;4954058;29;20035;-63
2022/09/04 07:58:43;;;;;;;2.63;1.50;;;;;;;;;;4954012;29;20027;-67
2022/09/04 08:01:34;;;;;;;3.28;1.90;;;;;;;;;;5033737;28;20033;-63
2022/09/04 08:04:28;;;;;;;3.90;1.80;;;;;;;;;;5033945;28;20033;-63
2022/09/04 08:06:59;;;;;;;3.40;1.70;;;;;;;;;;5012069;28;20169;-63
2022/09/04 08:09:46;;;;;;;2.95;1.65;;;;;;;;;;5011761;28;20045;-62
2022/09/04 08:12:20;;;;;;;4.22;1.80;;;;;;;;;;5012033;28;20057;-62
2022/09/04 08:14:53;;;;;;;4.07;1.52;;;;;;;;;;5011695;28;20481;-62
2022/09/04 08:17:41;;;;;;;6.78;1.60;;;;;;;;;;5011255;28;20038;-63
2022/09/04 08:20:11;;;;;;;3.40;1.60;;;;;;;;;;5011033;28;20026;-62
2022/09/04 08:22:45;;;;;;;4.28;1.77;;;;;;;;;;5011714;28;20499;-65
2022/09/04 08:25:21;;;;;;;4.35;1.77;;;;;;;;;;5011561;28;20191;-62
2022/09/04 08:28:16;;;;;;;5.00;3.30;;;;;;;;;;5011583;28;20030;-63
2022/09/04 08:31:02;;;;;;;4.00;1.90;;;;;;;;;;5011495;28;20117;-62
2022/09/04 08:33:36;;;;;;;2.67;1.60;;;;;;;;;;5011518;28;20033;-62
2022/09/04 08:36:49;;;;;;;2.83;1.70;;;;;;;;;;5011661;28;20079;-65
2022/09/04 08:39:37;;;;;;;2.50;1.52;;;;;;;;;;4914891;29;20036;-66
2022/09/04 08:42:27;;;;;;;3.70;1.92;;;;;;;;;;4914864;29;20032;-63
2022/09/04 08:45:26;;;;;;;5.93;1.70;;;;;;;;;;4922298;29;20044;-62
2022/09/04 08:48:40;;;;;;;2.58;1.70;;;;;;;;;;4933672;29;20079;-67
2022/09/04 08:51:33;;;;;;;3.03;1.73;;;;;;;;;;4896001;29;20119;-62
2022/09/04 08:54:21;;;;;;;4.50;1.70;;;;;;;;;;4895890;29;20038;-63
2022/09/04 08:56:56;;;;;;;3.95;1.60;;;;;;;;;;4895972;29;20033;-62
2022/09/04 08:59:50;;;;;;;2.10;1.48;;;;;;;;;;4895451;29;20120;-64
2022/09/04 09:02:43;;;;;;;3.30;1.90;;;;;;;;;;4895967;29;20033;-64
2022/09/04 09:05:33;;;;;;;4.25;1.80;;;;;;;;;;4895725;29;20178;-67
2022/09/04 09:08:24;;;;;;;4.03;1.80;;;;;;;;;;4895514;29;20040;-68
2022/09/04 09:11:20;;;;;;;3.30;1.85;;;;;;;;;;4892754;29;20504;-67
2022/09/04 09:13:57;;;;;;;3.97;2.20;;;;;;;;;;4895478;29;20044;-64
2022/09/04 09:16:25;;;;;;;3.58;2.00;;;;;;;;;;4943205;28;20043;-64
2022/09/04 09:19:08;;;;;;;3.05;1.60;;;;;;;;;;4971841;28;20030;-64
2022/09/04 09:21:42;;;;;;;5.63;1.90;;;;;;;;;;4971776;28;20438;-66
2022/09/04 09:24:23;;;;;;;3.08;1.90;;;;;;;;;;4971926;28;20027;-64
2022/09/04 09:27:07;;;;;;;2.92;1.70;;;;;;;;;;4992462;28;20037;-64
2022/09/04 09:30:06;;;;;;;5.40;1.80;;;;;;;;;;5032599;28;20022;-66
2022/09/04 09:33:07;;;;;;;3.47;1.80;;;;;;;;;;5034750;28;20029;-64
2022/09/04 09:36:03;;;;;;;3.33;1.52;;;;;;;;;;5032720;28;20396;-67
2022/09/04 09:38:53;;;;;;;4.60;1.80;;;;;;;;;;5036708;28;20507;-65
2022/09/04 09:41:18;;;;;;;;;;;;;;;;;;5036800;28;20033;-63
2022/09/04 09:44:11;;;;;;;6.18;1.80;;;;;;;;;;5047038;28;19917;-64
2022/09/04 09:47:19;;;;;;;5.05;1.83;;;;;;;;;;5036578;28;20029;-64
2022/09/04 09:50:04;;;;;;;4.75;1.90;;;;;;;;;;5036458;28;20555;-63
2022/09/04 09:52:58;;;;;;;5.63;1.55;;;;;;;;;;5036492;28;20435;-64
2022/09/04 09:55:32;;;;;;;4.20;1.55;;;;;;;;;;5036163;28;20117;-64
2022/09/04 09:58:07;;;;;;;3.30;1.60;;;;;;;;;;5036283;28;20033;-65
2022/09/04 10:01:00;;;;;;;4.65;1.52;;;;;;;;;;5036266;28;20025;-64
2022/09/04 10:03:37;;;;;;;3.13;1.90;;;;;;;;;;5036189;28;20076;-63
2022/09/04 10:06:28;;;;;;;3.85;1.73;;;;;;;;;;5036120;28;20074;-69
2022/09/04 10:09:12;;;;;;;6.45;2.00;;;;;;;;;;5036024;28;20065;-64
2022/09/04 10:11:46;;;;;;;3.13;1.67;;;;;;;;;;5035811;28;20370;-68
2022/09/04 10:14:17;;;;;;;5.22;1.52;;;;;;;;;;5036105;28;20528;-64
2022/09/04 10:16:56;;;;;;;6.38;1.83;;;;;;;;;;5036137;28;20136;-64
2022/09/04 10:19:45;;;;;;;4.90;1.80;;;;;;;;;;5035925;28;20104;-63
2022/09/04 10:22:38;;;;;;;3.70;1.85;;;;;;;;;;5036038;28;20100;-64
2022/09/04 10:25:45;;;;;;;3.28;1.70;;;;;;;;;;5035681;28;20029;-64
2022/09/04 10:28:16;;;;;;;3.97;2.58;;;;;;;;;;5013897;28;20045;-63
2022/09/04 10:31:29;;;;;;;3.83;2.45;;;;;;;;;;5013746;28;20092;-67
2022/09/04 10:33:57;;;;;;;3.55;1.80;;;;;;;;;;4955244;29;20214;-64
2022/09/04 10:36:36;;;;;;;4.32;1.63;;;;;;;;;;4955215;29;20043;-65
2022/09/04 10:41:57;;;;;;;6.13;2.10;;;;;;;;;;4955333;29;20061;-64
2022/09/04 10:44:43;;;;;;;5.47;2.00;;;;;;;;;;4954147;28;20490;-63
2022/09/04 10:47:23;;;;;;;2.83;1.52;;;;;;;;;;4955159;29;20510;-67
2022/09/04 10:50:00;;;;;;;3.22;1.60;;;;;;;;;;4955049;29;20064;-64
2022/09/04 10:52:41;;;;;;;2.75;1.45;;;;;;;;;;4954889;29;20040;-64
2022/09/04 10:55:25;;;;;;;4.55;1.70;;;;;;;;;;4954716;29;20479;-63
2022/09/04 10:58:38;;;;;;;5.97;1.90;;;;;;;;;;4954930;29;20118;-63
2022/09/04 11:01:26;;;;;;;3.30;1.45;;;;;;;;;;4879074;29;20040;-63
2022/09/04 11:04:00;;;;;;;4.07;1.70;;;;;;;;;;4879248;29;20033;-63
2022/09/04 11:06:48;;;;;;;3.67;1.80;;;;;;;;;;4879246;29;20045;-64
2022/09/04 11:09:13;;;;;;;5.18;1.80;;;;;;;;;;4899738;29;20565;-63
2022/09/04 11:12:16;;;;;;;6.50;1.50;;;;;;;;;;4935718;29;20114;-63
2022/09/04 11:14:48;;;;;;;3.58;1.48;;;;;;;;;;4935449;29;20044;-63
2022/09/04 11:17:41;;;;;;;6.60;2.10;;;;;;;;;;4935490;29;20043;-64
2022/09/04 11:20:43;;;;;;;5.97;2.03;;;;;;;;;;4935448;29;20479;-64
2022/09/04 11:23:36;;;;;;;4.28;1.88;;;;;;;;;;4935059;29;20040;-69
2022/09/04 11:26:13;;;;;;;5.38;2.20;;;;;;;;;;4935457;29;20153;-63
2022/09/04 11:29:08;;;;;;;4.32;1.80;;;;;;;;;;4935238;29;20051;-63
2022/09/04 11:31:54;;;;;;;3.40;1.90;;;;;;;;;;4934798;29;20035;-63
2022/09/04 11:34:52;;;;;;;6.22;1.55;;;;;;;;;;4957331;28;20061;-65
2022/09/04 11:37:58;;;;;;;4.05;1.73;;;;;;;;;;5014632;28;20032;-64
2022/09/04 11:40:24;;;;;;;4.70;1.70;;;;;;;;;;5014706;28;20121;-65
2022/09/04 11:43:09;;;;;;;4.40;1.58;;;;;;;;;;5022851;28;20047;-66
2022/09/04 11:45:53;;;;;;;3.80;1.60;;;;;;;;;;4996542;28;20502;-65
2022/09/04 11:49:06;;;;;;;2.95;1.50;;;;;;;;;;4992469;28;20501;-63
2022/09/04 11:51:59;;;;;;;3.45;1.40;;;;;;;;;;4972963;28;20043;-63
2022/09/04 11:55:01;;;;;;;2.50;1.52;;;;;;;;;;4972540;28;20031;-63
2022/09/04 11:57:48;;;;;;;3.58;1.52;;;;;;;;;;4973081;28;20137;-66
2022/09/04 12:00:16;;;;;;;3.55;1.65;;;;;;;;;;4973251;28;20038;-63
2022/09/04 12:03:05;;;;;;;4.30;2.22;;;;;;;;;;4972999;28;20046;-65
2022/09/04 12:05:49;;;;;;;3.22;1.60;;;;;;;;;;4973032;28;20437;-64
2022/09/04 12:08:36;;;;;;;3.22;1.60;;;;;;;;;;4972933;28;20034;-64
2022/09/04 12:11:20;;;;;;;1.90;1.30;;;;;;;;;;4973118;28;20119;-64
2022/09/04 12:14:03;;;;;;;8.05;1.88;;;;;;;;;;4972740;28;20066;-64
2022/09/04 12:16:47;;;;;;;3.28;1.80;;;;;;;;;;4972477;28;20043;-63
2022/09/04 12:19:38;;;;;;;4.15;1.40;;;;;;;;;;4972729;28;20031;-63
2022/09/04 12:22:13;;;;;;;4.57;1.60;;;;;;;;;;4972507;28;20041;-63
2022/09/04 12:25:16;;;;;;;3.05;1.60;;;;;;;;;;4972669;28;20550;-64
2022/09/04 12:28:09;;;;;;;3.13;1.67;;;;;;;;;;4997554;28;20056;-64
2022/09/04 12:30:57;;;;;;;8.10;1.90;;;;;;;;;;5033282;28;20048;-63
2022/09/04 12:33:45;;;;;;;4.18;1.60;;;;;;;;;;5033265;28;20469;-66
2022/09/04 12:36:40;;;;;;;3.70;1.67;;;;;;;;;;5032944;28;20036;-62
2022/09/04 12:39:47;;;;;;;5.35;1.70;;;;;;;;;;4952876;28;20466;-63
2022/09/04 12:42:56;;;;;;;4.57;1.70;;;;;;;;;;4952639;28;20073;-61
2022/09/04 12:45:36;;;;;;;5.95;1.80;;;;;;;;;;4947112;28;20050;-62
2022/09/04 12:48:32;;;;;;;2.92;1.65;;;;;;;;;;4953063;29;20053;-63
2022/09/04 12:51:15;;;;;;;3.00;1.50;;;;;;;;;;4952761;29;20050;-67
2022/09/04 12:54:23;;;;;;;4.68;1.90;;;;;;;;;;4952986;29;20087;-63
2022/09/04 12:57:05;;;;;;;4.68;1.85;;;;;;;;;;4895790;29;20036;-62
2022/09/04 12:59:50;;;;;;;3.75;1.67;;;;;;;;;;4895753;29;20073;-64
2022/09/04 13:02:47;;;;;;;2.88;1.60;;;;;;;;;;4895778;29;20155;-62
2022/09/04 13:05:41;;;;;;;4.75;1.45;;;;;;;;;;4895587;29;20111;-64
2022/09/04 13:08:16;;;;;;;3.35;1.80;;;;;;;;;;4895685;29;20214;-64
2022/09/04 13:10:50;;;;;;;6.72;1.80;;;;;;;;;;4895663;29;20072;-62
2022/09/04 13:13:52;;;;;;;3.72;1.77;;;;;;;;;;4895485;29;20044;-62
2022/09/04 13:16:17;;;;;;;3.67;1.90;;;;;;;;;;4923755;29;20043;-64
2022/09/04 13:18:59;;;;;;;5.45;1.60;;;;;;;;;;4952404;29;20043;-65
2022/09/04 13:21:33;;;;;;;2.70;1.80;;;;;;;;;;4952562;29;20023;-63
2022/09/04 13:24:01;;;;;;;4.85;1.85;;;;;;;;;;4952867;29;20559;-64
2022/09/04 13:26:45;;;;;;;5.70;1.70;;;;;;;;;;4952673;29;20030;-63
2022/09/04 13:29:25;;;;;;;3.60;1.65;;;;;;;;;;4952463;29;20097;-63
2022/09/04 13:32:28;;;;;;;2.38;1.40;;;;;;;;;;5031601;28;20507;-68
2022/09/04 13:35:23;;;;;;;2.35;1.80;;;;;;;;;;5032288;28;20041;-63
2022/09/04 13:38:04;;;;;;;2.60;1.40;;;;;;;;;;5010752;28;20034;-63
2022/09/04 13:40:58;;;;;;;3.72;1.63;;;;;;;;;;5010821;28;20022;-65
2022/09/04 13:43:42;;;;;;;2.63;1.67;;;;;;;;;;5010538;28;20045;-64
2022/09/04 13:46:13;;;;;;;6.32;1.80;;;;;;;;;;5010725;28;20144;-64
2022/09/04 13:48:46;;;;;;;4.35;1.60;;;;;;;;;;5010217;28;20038;-65
2022/09/04 13:51:21;;;;;;;4.57;1.90;;;;;;;;;;5010732;28;20096;-68
2022/09/04 13:54:14;;;;;;;5.72;2.50;;;;;;;;;;5010582;28;20076;-67
2022/09/04 13:56:51;;;;;;;3.13;1.75;;;;;;;;;;4994013;28;20058;-66
2022/09/04 13:59:19;;;;;;;5.63;2.30;;;;;;;;;;5010600;28;20496;-67
2022/09/04 14:01:49;;;;;;;3.92;1.73;;;;;;;;;;5010282;28;20121;-65
2022/09/04 14:04:25;;;;;;;6.00;1.70;;;;;;;;;;5010702;28;20049;-66
2022/09/04 14:07:05;;;;;;;4.03;1.65;;;;;;;;;;5010710;28;20232;-65
2022/09/04 14:09:37;;;;;;;4.45;2.75;;;;;;;;;;5010267;28;20477;-65
2022/09/04 14:12:10;;;;;;;5.93;2.33;;;;;;;;;;5010518;28;20450;-64
2022/09/04 14:15:08;;;;;;;5.22;2.35;;;;;;;;;;5011436;28;20099;-66
2022/09/04 14:17:49;;;;;;;5.22;2.30;;;;;;;;;;5012933;28;20473;-66
2022/09/04 14:20:40;;;;;;;3.08;1.70;;;;;;;;;;5016015;28;20084;-64
2022/09/04 14:23:35;;;;;;;4.35;2.38;;;;;;;;;;4955515;29;20116;-64
2022/09/04 14:26:11;;;;;;;5.57;1.90;;;;;;;;;;4955748;29;20056;-65
2022/09/04 14:29:14;;;;;;;4.25;2.00;;;;;;;;;;4955534;29;20054;-64
2022/09/04 14:31:52;;;;;;;3.60;1.95;;;;;;;;;;4939346;29;20038;-64
2022/09/04 14:34:19;;;;;;;3.60;1.60;;;;;;;;;;4955516;29;20094;-63
2022/09/04 14:36:55;;;;;;;4.38;1.95;;;;;;;;;;4955283;29;20130;-63
2022/09/04 14:39:51;;;;;;;4.40;2.22;;;;;;;;;;4955444;29;20042;-66
2022/09/04 14:42:21;;;;;;;5.60;2.20;;;;;;;;;;4955093;29;20035;-63
2022/09/04 14:45:14;;;;;;;5.38;2.40;;;;;;;;;;4983369;28;20088;-63
2022/09/04 14:47:46;;;;;;;3.38;2.17;;;;;;;;;;4993707;28;20038;-64
2022/09/04 14:50:15;;;;;;;4.75;2.30;;;;;;;;;;4993988;28;20489;-63
2022/09/04 14:52:48;;;;;;;6.25;2.33;;;;;;;;;;4993790;28;20018;-64
2022/09/04 14:55:22;;;;;;;13.48;2.38;;;;;;;;;;4994009;28;20035;-63
2022/09/04 14:57:54;;;;;;;2.67;1.60;;;;;;;;;;4993880;28;20133;-63
2022/09/04 15:00:21;;;;;;;4.78;2.40;;;;;;;;;;5009494;28;20041;-64
2022/09/04 15:03:15;;;;;;;5.97;2.22;;;;;;;;;;5035172;28;20448;-64
2022/09/04 15:05:52;;;;;;;7.35;2.38;;;;;;;;;;5035101;28;20080;-63
2022/09/04 15:08:32;;;;;;;4.03;2.10;;;;;;;;;;5033382;28;20128;-63
2022/09/04 15:11:02;;;;;;;3.10;2.17;;;;;;;;;;5035009;28;20026;-64
2022/09/04 15:13:28;;;;;;;;;;;;;;;;;;5035344;28;20503;-65
2022/09/04 15:16:05;;;;;;;6.78;2.05;;;;;;;;;;5034630;28;20359;-65
2022/09/04 15:18:49;;;;;;;6.30;2.45;;;;;;;;;;5034696;28;20026;-64
2022/09/04 15:21:46;;;;;;;3.38;2.22;;;;;;;;;;5034471;28;20088;-64
2022/09/04 15:24:22;;;;;;;4.93;2.35;;;;;;;;;;5034607;28;20473;-65
2022/09/04 15:27:18;;;;;;;5.05;2.65;;;;;;;;;;5034659;28;20029;-64
2022/09/04 15:29:52;;;;;;;3.97;2.00;;;;;;;;;;5033178;28;20034;-64
2022/09/04 15:32:22;;;;;;;4.50;2.50;;;;;;;;;;5034281;28;20057;-64
2022/09/04 15:34:49;;;;;;;5.60;2.67;;;;;;;;;;5034469;28;20053;-63
2022/09/04 15:37:25;;;;;;;4.93;2.20;;;;;;;;;;5034459;28;20207;-69
2022/09/04 15:40:10;;;;;;;5.25;2.30;;;;;;;;;;5034125;28;20385;-67
2022/09/04 15:43:14;;;;;;;5.20;2.65;;;;;;;;;;5036216;28;20041;-64
2022/09/04 15:45:46;;;;;;;5.18;2.20;;;;;;;;;;5027856;28;20480;-65
2022/09/04 15:48:17;;;;;;;6.40;2.40;;;;;;;;;;5033946;28;20033;-65
2022/09/04 15:51:01;;;;;;;3.35;2.50;;;;;;;;;;5034193;28;20045;-63
2022/09/04 15:53:33;;;;;;;5.00;2.42;;;;;;;;;;5033995;28;20098;-66
2022/09/04 15:56:08;;;;;;;7.57;2.50;;;;;;;;;;5033924;28;20468;-64
2022/09/04 15:59:13;;;;;;;3.80;2.13;;;;;;;;;;5033648;28;20042;-67
2022/09/04 16:01:59;;;;;;;4.93;2.40;;;;;;;;;;5033835;28;20030;-63
2022/09/04 16:04:41;;;;;;;3.60;2.13;;;;;;;;;;5033633;28;20091;-63
2022/09/04 16:07:33;;;;;;;4.25;2.40;;;;;;;;;;5033805;28;20032;-63
2022/09/04 16:10:24;;;;;;;7.25;2.42;;;;;;;;;;5033706;28;20021;-63
2022/09/04 16:12:58;;;;;;;5.50;2.50;;;;;;;;;;5033399;28;20029;-69
2022/09/04 16:15:43;;;;;;;7.13;2.65;;;;;;;;;;5033743;28;20037;-68
2022/09/04 16:18:21;;;;;;;8.02;3.03;;;;;;;;;;5033757;28;20033;-67
2022/09/04 16:20:57;;;;;;;3.80;2.40;;;;;;;;;;5033254;28;20476;-64
2022/09/04 16:23:34;;;;;;;5.93;2.55;;;;;;;;;;5033518;28;20029;-63
2022/09/04 16:26:10;;;;;;;4.32;2.53;;;;;;;;;;5033383;28;20105;-63
2022/09/04 16:28:45;;;;;;;6.00;2.55;;;;;;;;;;5032953;28;20033;-63
2022/09/04 16:31:13;;;;;;;4.45;2.53;;;;;;;;;;5033354;28;20472;-63